Flight Track Log - Related Links

Times and Time Zones

All times are in EDT time to prevent confusion due to time zone crossing. See the GJS6252 flight status page for this flight to view local times or setup timezone preferences in your user account.


Time Position Orientation Groundspeed Altitude Reporting Facility
EDT Latitude Longitude Course Direction KTS MPH feet Rate Location/Type
Fri 06:14:27 AM 44.4708 -73.2750 196° South 199 229 4,600  Level Boston Center
Fri 06:15:27 AM 44.3978 -73.2914 189° South 209 241 7,500 2,650 Climbing Boston Center
Fri 06:16:27 AM 44.3289 -73.3078 190° South 263 303 9,900 2,150 Climbing Boston Center
Fri 06:17:27 AM 44.2494 -73.3386 196° South 294 338 11,800 1,650 Climbing Boston Center
Fri 06:18:27 AM 44.1575 -73.3689 193° South 329 379 13,200 1,950 Climbing Boston Center
Fri 06:19:00 AM 43.9637 -73.3412 196° South  Level FlightAware Approximate
Fri 06:19:27 AM 44.0614 -73.3964 192° South 355 409 15,700  Level Boston Center
Fri 06:20:27 AM 43.9717 -73.4267 194° South 350 403 18,700 2,500 Climbing Boston Center
Fri 06:21:27 AM 43.8839 -73.4542 193° South 335 386 20,700 1,600 Climbing Boston Center
Fri 06:22:27 AM 43.7814 -73.4869 193° South 343 395 21,900 650 Climbing Boston Center
Fri 06:23:27 AM 43.6853 -73.5197 194° South 349 402 22,000 50 Climbing Boston Center
Fri 06:24:27 AM 43.5872 -73.5436 190° South 356 410 22,000  Level Boston Center
Fri 06:25:27 AM 43.4931 -73.5764 194° South 356 410 22,000  Level Boston Center
Fri 06:26:27 AM 43.3989 -73.6003 190° South 356 410 22,000  Level Boston Center
Fri 06:27:27 AM 43.3069 -73.6300 193° South 351 404 22,000  Level Boston Center
Fri 06:28:27 AM 43.2128 -73.6622 194° South 351 404 22,000  Level Boston Center
Fri 06:29:27 AM 43.1272 -73.6889 193° South 358 412 22,000  Level Boston Center
Fri 06:30:27 AM 43.0331 -73.7183 193° South 358 412 22,000  Level Boston Center
Fri 06:31:27 AM 42.9369 -73.7503 194° South 358 412 22,000  Level Boston Center
Fri 06:32:27 AM 42.8406 -73.7767 191° South 353 406 22,000  Level Boston Center
Fri 06:33:27 AM 42.7425 -73.8000 190° South 360 414 22,000 -200 Level Boston Center
Fri 06:34:27 AM 42.6406 -73.7864 174° South 360 414 21,600 -650 Descending Boston Center
Fri 06:35:27 AM 42.5428 -73.7644 171° South 360 414 20,700 -950 Descending Boston Center
Fri 06:36:27 AM 42.4450 -73.7456 172° South 360 414 19,700 -850 Descending Boston Center
Fri 06:37:27 AM 42.3347 -73.7181 170° South 370 426 19,000 -350 Descending Boston Center
Fri 06:38:27 AM 42.2517 -73.7050 173° South 363 418 19,000  Level Boston Center
Fri 06:39:27 AM 42.1539 -73.6836 171° South 363 418 19,000  Level Boston Center
Fri 06:40:27 AM 42.0436 -73.6561 170° South 368 423 19,000 -50 Level Boston Center
Fri 06:41:27 AM 41.9542 -73.6600 182° South 363 418 18,900 -900 Descending Boston Center
Fri 06:42:27 AM 41.8475 -73.6831 189° South 357 411 17,200 -1,600 Descending Boston Center
Fri 06:43:27 AM 41.7619 -73.7036 190° South 349 402 15,700 -1,700 Descending Boston Center
Fri 06:44:27 AM 41.6553 -73.7264 189° South 354 407 13,800 -1,889 Descending Boston Center
Fri 06:45:15 AM 41.5833 -73.7500 194° South 352 405 12,300 -1,882 Descending New York TRACON
Fri 06:46:09 AM 41.4833 -73.7500 180° South 344 396 10,600 -1,364 Descending New York TRACON
Fri 06:47:27 AM 41.3833 -73.7000 159° South 277 319 9,300 -1,364 Descending New York TRACON
Fri 06:48:21 AM 41.3167 -73.6833 169° South 276 318 7,600 -1,778 Descending New York TRACON
Fri 06:49:15 AM 41.2667 -73.6500 153° Southeast 278 320 6,100 -1,526 Descending New York TRACON
Fri 06:50:15 AM 41.1833 -73.6167 163° South 269 310 4,700 -1,050 Descending New York TRACON
Fri 06:51:15 AM 41.1167 -73.6000 169° South 264 304 4,000 -368 Descending New York TRACON
Fri 06:52:09 AM 41.0667 -73.6500 217° Southwest 253 291 4,000 -50 Level New York TRACON
Fri 06:53:15 AM 41.0000 -73.7000 210° Southwest 257 296 3,900 -381 Descending New York TRACON
Fri 06:54:15 AM 40.9333 -73.7500 210° Southwest 248 285 3,200 -800 Descending New York TRACON
Fri 06:55:15 AM 40.8833 -73.7833 207° Southwest 220 253 2,300 -950 Descending New York TRACON
Fri 06:56:15 AM 40.8500 -73.8167 217° Southwest 155 178 1,300 -857 Descending New York TRACON
Fri 06:57:21 AM 40.8000 -73.8500 207° Southwest 142 163 500 -727 Descending New York TRACON
Fri 06:59:00 AM 40.7667 -73.8667 180° South  Level FlightAware Approximate
Fri 07:06:00 AM 40.7772 -73.8726 180° South  Level Estimated

Login

Don't have an account? Register now (free) for customized features, flight alerts, and more!